Kezdőlap
METAR-TAF:

METAR-TAF

Repülőterek :

Windham Airport

Willimantic, Connecticut, Amerikai Egyesült Államok

földrajzi szélesség: 41-44-31N, földrajzi hosszúság: 072-11-01W, magasság: 75 m

Jelenlegi meteorológiai megfigyelések

A jelentés 25 perccel ezelõtt készült, 13:52 UTC
Dél-délkeleti szél 7 kt
Hőmérséklet 9°C
Páratartalom 57%
Légköri nyomás 1023 hPa
Látótávolság: 16.1 km
Borult 5000 lábon

METAR: KIJD 181352Z AUTO 16007KT 10SM OVC050 09/01 A3021 RMK AO2 SLP231 T00890006

Idő: 10:17 (14:17 UTC)


TAF: hiányzik

Meteorológiai megfigyelések és előrejelzések több, mint 4000 repülőtéren (METAR és TAF jelentéseket).

A térképen piros és sárga pontok jelzik az elérhető meteorológiai állomásokat.

Mozgassa az egeret a pont fölött, hogy megjelenjen az állomás neve.

Azután kattintson az időjárási megfigyelések és előrejelzések megtekintéséhez.

A térkép megváltoztatása: kattintson a fekete keresztel jelölt zöld gombra ráközelítéshez, a vonallal jelölt zöld gombra távolításhoz, vagy a zöld nyilakra a szomszédos térképek eléréséhez.


METAR-TAF: